Time;durP1;ratioP1;P1;durP2;ratioP2;P2;SDS_P1;SDS_P2;PMS_P1;PMS_P2;Temp;Humidity;BMP_temperature;BMP_pressure;BME280_temperature;BME280_humidity;BME280_pressure;Samples;Min_cycle;Max_cycle;Signal;HPM_P1;HPM_P2
2021/04/12 00:02:57;;;;;;;13.58;8.53;;;;;;;19.64;43.92;98859.91;2261615;78;21100;-77
2021/04/12 00:05:58;;;;;;;21.35;15.40;;;;;;;19.71;42.96;98862.81;2261167;78;21097;-77
2021/04/12 00:08:59;;;;;;;17.50;12.00;;;;;;;19.77;42.34;98856.95;2261725;78;21092;-77
2021/04/12 00:12:00;;;;;;;14.58;9.28;;;;;;;19.73;41.99;98861.45;2261629;79;21097;-78
2021/04/12 00:15:01;;;;;;;14.38;9.18;;;;;;;19.83;42.04;98863.42;2261433;78;21124;-78
2021/04/12 00:18:02;;;;;;;33.55;8.90;;;;;;;19.95;41.80;98860.50;2261379;78;21235;-77
2021/04/12 00:21:03;;;;;;;13.10;8.58;;;;;;;19.93;42.29;98856.98;2261643;78;21163;-78
2021/04/12 00:24:04;;;;;;;10.40;7.85;;;;;;;19.73;39.58;98858.36;2262230;78;21100;-79
2021/04/12 00:27:05;;;;;;;10.93;7.58;;;;;;;17.56;39.67;98864.85;2261811;78;21132;-78
2021/04/12 00:30:06;;;;;;;21.85;9.38;;;;;;;15.59;41.99;98860.94;2261598;78;21124;-78
2021/04/12 00:33:07;;;;;;;10.45;7.80;;;;;;;14.14;44.27;98867.28;2261827;78;21113;-78
2021/04/12 00:36:08;;;;;;;12.63;8.08;;;;;;;13.03;46.45;98867.64;2261719;78;21104;-78
2021/04/12 00:39:10;;;;;;;10.90;7.75;;;;;;;12.19;48.50;98863.78;2261985;78;21125;-79
2021/04/12 00:42:11;;;;;;;10.82;7.83;;;;;;;11.56;50.32;98866.76;2262426;79;21383;-79
2021/04/12 00:45:12;;;;;;;10.35;8.20;;;;;;;11.03;51.60;98862.76;2261887;78;21077;-79
2021/04/12 00:48:13;;;;;;;11.08;8.13;;;;;;;10.61;53.04;98869.69;2262160;78;21144;-78
2021/04/12 00:51:14;;;;;;;13.27;8.00;;;;;;;10.25;53.83;98863.97;2262005;78;21430;-78
2021/04/12 00:54:15;;;;;;;16.73;8.60;;;;;;;9.96;55.17;98861.80;2261850;78;21100;-79
2021/04/12 00:57:16;;;;;;;11.23;7.93;;;;;;;9.70;55.58;98857.50;2261806;78;21077;-79
2021/04/12 01:00:17;;;;;;;17.07;10.03;;;;;;;9.48;56.60;98860.16;2261866;78;21153;-78
2021/04/12 01:03:18;;;;;;;17.27;8.90;;;;;;;9.27;57.39;98858.50;2262050;78;21379;-79
2021/04/12 01:06:19;;;;;;;15.30;8.73;;;;;;;9.13;58.26;98853.05;2262148;78;21113;-79
2021/04/12 01:09:20;;;;;;;11.40;8.10;;;;;;;8.99;58.33;98857.56;2262169;78;21128;-79
2021/04/12 01:12:21;;;;;;;10.80;8.23;;;;;;;8.81;59.05;98861.58;2262101;78;21089;-80
2021/04/12 01:15:22;;;;;;;12.20;7.50;;;;;;;8.61;59.44;98858.56;2261891;78;21085;-80
2021/04/12 01:18:23;;;;;;;10.60;7.57;;;;;;;8.41;60.06;98853.80;2262030;78;21093;-78
2021/04/12 01:21:24;;;;;;;14.90;8.07;;;;;;;8.19;60.54;98852.02;2262040;78;21151;-79
2021/04/12 01:24:25;;;;;;;12.53;8.90;;;;;;;8.06;60.96;98853.91;2261712;78;21123;-79
2021/04/12 01:27:26;;;;;;;13.30;7.80;;;;;;;7.95;61.88;98848.89;2261824;78;21128;-79
2021/04/12 01:30:27;;;;;;;23.60;17.17;;;;;;;7.92;62.13;98847.53;2261921;78;21108;-79
2021/04/12 01:33:28;;;;;;;14.60;9.27;;;;;;;7.89;62.77;98848.76;2261776;78;21148;-79
2021/04/12 01:36:29;;;;;;;9.60;8.30;;;;;;;7.81;63.76;98847.70;2261788;78;21387;-79
2021/04/12 01:39:31;;;;;;;17.27;9.40;;;;;;;7.81;63.76;98847.70;2261907;78;21188;-79
2021/04/12 01:42:32;;;;;;;13.83;9.47;;;;;;;7.79;63.72;98846.34;2261792;78;21120;-79
2021/04/12 01:45:33;;;;;;;15.13;9.43;;;;;;;7.77;63.91;98843.25;2261717;78;21136;-79
2021/04/12 01:48:34;;;;;;;15.73;9.13;;;;;;;7.74;64.55;98836.27;2261918;78;21133;-79
2021/04/12 01:51:35;;;;;;;12.37;8.57;;;;;;;7.74;64.55;98836.27;2261730;78;21149;-79
2021/04/12 01:54:36;;;;;;;11.00;8.70;;;;;;;7.74;64.54;98829.77;2261713;78;21112;-79
2021/04/12 01:57:37;;;;;;;85.80;14.97;;;;;;;7.72;64.60;98833.17;2261682;78;21422;-79
2021/04/12 02:00:38;;;;;;;15.83;8.83;;;;;;;7.68;64.55;98831.80;2261620;78;21163;-78
2021/04/12 02:03:39;;;;;;;18.10;9.83;;;;;;;7.65;64.74;98836.05;2261729;78;21128;-79
2021/04/12 02:06:40;;;;;;;26.40;17.33;;;;;;;7.63;64.97;98829.52;2261890;78;21117;-79
2021/04/12 02:09:41;;;;;;;245.17;29.00;;;;;;;7.61;64.85;98831.20;2261942;78;21123;-80
2021/04/12 02:12:42;;;;;;;29.30;10.50;;;;;;;7.58;64.80;98831.14;2262145;78;21125;-80
2021/04/12 02:15:43;;;;;;;53.70;10.57;;;;;;;7.54;64.77;98834.50;2261534;78;21423;-79
2021/04/12 02:18:45;;;;;;;67.60;11.23;;;;;;;7.47;64.90;98831.73;2261891;78;21088;-79
2021/04/12 02:21:46;;;;;;;13.53;8.00;;;;;;;7.37;64.98;98837.54;2257750;77;21140;-81
2021/04/12 02:24:47;;;;;;;14.33;8.73;;;;;;;7.30;65.30;98835.22;2249748;79;21402;-79
2021/04/12 02:27:48;;;;;;;11.27;8.23;;;;;;;7.22;65.42;98836.75;2250009;79;21125;-79
2021/04/12 02:30:49;;;;;;;11.17;8.27;;;;;;;7.18;65.53;98829.72;2249847;79;21121;-79
2021/04/12 02:33:50;;;;;;;12.37;7.80;;;;;;;7.14;65.73;98835.67;2249562;79;21109;-79
2021/04/12 02:36:51;;;;;;;14.47;8.17;;;;;;;7.12;65.93;98833.04;2249545;79;21410;-78
2021/04/12 02:39:52;;;;;;;12.83;9.10;;;;;;;7.10;65.94;98832.55;2249400;79;21121;-78
2021/04/12 02:42:53;;;;;;;12.97;8.40;;;;;;;7.05;66.44;98838.04;2249837;78;21480;-79
2021/04/12 02:45:54;;;;;;;12.53;8.60;;;;;;;7.05;66.44;98838.04;2250138;78;21144;-79
2021/04/12 02:48:55;;;;;;;13.17;8.53;;;;;;;7.03;66.41;98838.00;2249976;79;21125;-79
2021/04/12 02:51:56;;;;;;;10.87;8.50;;;;;;;6.98;66.32;98834.41;2249822;79;21148;-79
2021/04/12 02:54:57;;;;;;;13.40;7.97;;;;;;;6.85;66.06;98831.88;2249641;79;21438;-78
2021/04/12 02:57:58;;;;;;;13.67;8.13;;;;;;;6.85;66.06;98831.88;2249623;78;21137;-78
2021/04/12 03:00:59;;;;;;;13.37;8.57;;;;;;;6.79;66.44;98837.33;2249776;79;21260;-79
2021/04/12 03:04:00;;;;;;;10.77;7.60;;;;;;;6.76;66.78;98834.23;2249628;79;21411;-79
2021/04/12 03:07:01;;;;;;;12.53;7.83;;;;;;;6.64;66.14;98839.97;2249823;79;21121;-78
2021/04/12 03:10:03;;;;;;;9.77;7.93;;;;;;;6.49;66.33;98840.85;2249846;78;21085;-79
2021/04/12 03:13:04;;;;;;;10.30;7.60;;;;;;;6.34;66.60;98841.30;2249819;79;21081;-79
2021/04/12 03:16:05;;;;;;;25.73;17.73;;;;;;;6.27;66.95;98846.27;2249948;79;21407;-78
2021/04/12 03:19:06;;;;;;;31.63;20.07;;;;;;;6.20;67.11;98843.91;2249980;79;21121;-79
2021/04/12 03:22:07;;;;;;;13.77;9.70;;;;;;;6.12;67.33;98844.11;2249540;78;21129;-80
2021/04/12 03:25:08;;;;;;;34.80;7.87;;;;;;;6.02;67.41;98842.05;2249949;79;21546;-82
2021/04/12 03:28:10;;;;;;;14.53;7.50;;;;;;;5.94;67.37;98841.82;2249858;79;21121;-84
2021/04/12 03:31:13;;;;;;;10.90;7.50;;;;;;;5.83;67.35;98838.41;2250063;79;21243;-82
2021/04/12 03:34:14;;;;;;;17.17;9.20;;;;;;;5.71;67.66;98831.14;2249711;79;21097;-81
2021/04/12 03:37:15;;;;;;;10.90;7.20;;;;;;;5.59;67.93;98835.53;2249963;79;21132;-79
2021/04/12 03:40:16;;;;;;;11.53;8.40;;;;;;;5.53;68.35;98834.05;2249879;79;21486;-79
2021/04/12 03:43:18;;;;;;;10.00;8.13;;;;;;;5.44;68.62;98838.52;2249754;79;21407;-80
2021/04/12 03:46:19;;;;;;;10.97;7.53;;;;;;;5.46;69.22;98845.45;2250012;79;21164;-79
2021/04/12 03:49:20;;;;;;;12.53;7.77;;;;;;;5.44;68.92;98837.64;2249924;79;21097;-79
2021/04/12 03:52:21;;;;;;;9.30;7.43;;;;;;;5.39;68.68;98841.80;2250090;79;21141;-79
2021/04/12 03:55:22;;;;;;;12.77;9.27;;;;;;;5.31;68.96;98842.84;2249738;79;21243;-79
2021/04/12 03:58:23;;;;;;;18.10;9.63;;;;;;;5.28;69.17;98844.45;2249544;79;21126;-79
2021/04/12 04:01:25;;;;;;;11.47;9.13;;;;;;;5.31;69.50;98844.55;2249678;79;21144;-82
2021/04/12 04:04:26;;;;;;;16.37;8.83;;;;;;;5.34;69.92;98845.94;2249820;79;21117;-82
2021/04/12 04:07:27;;;;;;;11.20;8.43;;;;;;;5.40;69.66;98840.96;2249897;79;21124;-82
2021/04/12 04:10:30;;;;;;;19.07;11.50;;;;;;;5.40;69.24;98848.73;2249984;79;21275;-79
2021/04/12 04:13:31;;;;;;;399.13;38.07;;;;;;;5.41;69.26;98850.07;2249651;78;21375;-80
2021/04/12 04:16:32;;;;;;;65.17;25.37;;;;;;;5.44;69.67;98842.81;2249833;79;21124;-82
2021/04/12 04:19:33;;;;;;;114.30;38.40;;;;;;;5.51;69.55;98847.36;2249307;79;21153;-82
2021/04/12 04:22:34;;;;;;;230.13;104.30;;;;;;;5.55;69.40;98844.03;2262690;78;21166;-82
2021/04/12 04:25:35;;;;;;;54.10;28.30;;;;;;;5.59;69.44;98845.02;2279010;78;21127;-82
2021/04/12 04:28:36;;;;;;;20.70;11.77;;;;;;;5.61;69.77;98842.94;2280756;78;21238;-82
2021/04/12 04:31:37;;;;;;;17.90;10.93;;;;;;;5.70;69.70;98840.63;2281520;78;21124;-80
2021/04/12 04:34:39;;;;;;;30.10;11.37;;;;;;;5.82;70.22;98841.83;2281161;78;21108;-80
2021/04/12 04:37:40;;;;;;;29.30;9.53;;;;;;;5.93;70.00;98843.95;2280965;78;21123;-81
2021/04/12 04:40:41;;;;;;;39.23;21.57;;;;;;;6.06;69.95;98842.19;2280637;78;21161;-80
2021/04/12 04:43:42;;;;;;;27.33;12.00;;;;;;;6.22;70.06;98848.73;2280590;78;21115;-81
2021/04/12 04:46:43;;;;;;;22.50;9.43;;;;;;;6.43;70.06;98848.88;2279595;78;21128;-82
2021/04/12 04:49:44;;;;;;;18.40;9.80;;;;;;;6.65;69.88;98851.23;2280378;78;21132;-77
2021/04/12 04:52:45;;;;;;;15.20;9.67;;;;;;;6.84;69.64;98852.18;2279143;78;21159;-79
2021/04/12 04:55:46;;;;;;;39.90;10.63;;;;;;;7.00;69.50;98853.08;2278686;78;21222;-79
2021/04/12 04:58:47;;;;;;;20.13;9.37;;;;;;;7.18;69.23;98853.09;2278287;78;21270;-79
2021/04/12 05:01:48;;;;;;;43.97;10.73;;;;;;;7.38;69.05;98851.86;2277380;78;21124;-79
2021/04/12 05:04:50;;;;;;;84.70;13.20;;;;;;;7.58;68.87;98861.01;2278210;78;21143;-78
2021/04/12 05:07:51;;;;;;;17.47;8.97;;;;;;;7.79;68.35;98855.86;2278758;78;21258;-79
2021/04/12 05:10:52;;;;;;;29.30;9.47;;;;;;;8.61;69.85;98856.38;2278579;78;21159;-80
2021/04/12 05:13:55;;;;;;;61.53;11.13;;;;;;;8.84;67.05;98858.16;2278830;78;21120;-80
2021/04/12 05:16:58;;;;;;;12.73;8.90;;;;;;;8.90;66.24;98860.45;2278606;78;21214;-79
2021/04/12 05:19:59;;;;;;;17.37;8.93;;;;;;;8.90;66.24;98860.45;2278405;78;21163;-82
2021/04/12 05:23:01;;;;;;;16.33;9.50;;;;;;;9.01;65.47;98868.88;2263279;77;21294;-79
2021/04/12 05:26:02;;;;;;;11.43;8.30;;;;;;;9.09;65.24;98868.59;2249615;79;21094;-81
2021/04/12 05:29:03;;;;;;;62.43;11.63;;;;;;;9.17;64.95;98861.80;2249619;79;21271;-79
2021/04/12 05:32:04;;;;;;;59.93;11.37;;;;;;;9.24;64.72;98862.36;2250180;79;21455;-81
2021/04/12 05:35:05;;;;;;;27.17;10.17;;;;;;;9.31;64.48;98871.16;2249790;79;21139;-79
2021/04/12 05:38:06;;;;;;;46.60;11.20;;;;;;;9.42;64.37;98867.00;2249504;78;21376;-81
2021/04/12 05:41:07;;;;;;;12.93;8.67;;;;;;;9.52;64.12;98869.78;2249948;79;21125;-80
2021/04/12 05:44:08;;;;;;;10.80;8.47;;;;;;;9.67;63.77;98863.09;2249785;79;21089;-80
2021/04/12 05:47:09;;;;;;;46.73;11.00;;;;;;;9.77;63.43;98862.38;2248696;79;21117;-80
2021/04/12 05:50:11;;;;;;;15.07;8.27;;;;;;;9.87;63.27;98869.48;2249295;79;21359;-80
2021/04/12 05:53:12;;;;;;;17.93;8.50;;;;;;;10.01;62.84;98871.87;2249208;78;21152;-80
2021/04/12 05:56:13;;;;;;;27.00;9.63;;;;;;;10.09;62.55;98879.38;2249109;79;21244;-80
2021/04/12 05:59:15;;;;;;;132.77;14.80;;;;;;;10.20;62.32;98876.95;2249411;79;21395;-80
2021/04/12 06:02:16;;;;;;;12.40;8.87;;;;;;;10.41;62.33;98868.56;2249324;79;21082;-80
2021/04/12 06:05:20;;;;;;;23.67;9.78;;;;;;;10.59;61.61;98864.87;2249811;79;21101;-79
2021/04/12 06:08:21;;;;;;;10.33;7.43;;;;;;;10.74;61.52;98863.75;2249317;79;21128;-80
2021/04/12 06:11:22;;;;;;;9.20;8.10;;;;;;;10.95;60.82;98869.64;2249918;79;21398;-80
2021/04/12 06:14:24;;;;;;;13.27;7.30;;;;;;;11.16;60.42;98860.72;2249542;79;21144;-80
2021/04/12 06:17:26;;;;;;;11.13;7.27;;;;;;;11.41;59.78;98865.77;2249082;79;21085;-80
2021/04/12 06:20:27;;;;;;;14.47;8.57;;;;;;;11.65;59.35;98866.83;2249557;78;21168;-81
2021/04/12 06:23:28;;;;;;;34.53;9.13;;;;;;;11.85;58.66;98870.94;2249686;78;21128;-82
2021/04/12 06:26:29;;;;;;;13.58;7.50;;;;;;;12.04;58.12;98865.84;2249946;79;21259;-80
2021/04/12 06:29:31;;;;;;;41.83;8.50;;;;;;;12.23;57.84;98875.14;2250019;79;21097;-80
2021/04/12 06:32:32;;;;;;;9.50;6.65;;;;;;;12.40;57.50;98880.03;2249212;79;21086;-80
2021/04/12 06:35:33;;;;;;;9.50;6.75;;;;;;;12.54;56.89;98882.71;2248804;78;21136;-80
2021/04/12 06:38:34;;;;;;;13.43;6.90;;;;;;;12.69;56.01;98881.03;2249035;79;21135;-78
2021/04/12 06:41:35;;;;;;;19.32;7.62;;;;;;;12.83;55.98;98880.20;2249629;78;21164;-78
2021/04/12 06:44:37;;;;;;;130.85;12.78;;;;;;;12.99;55.42;98878.95;2249192;79;21238;-80
2021/04/12 06:47:38;;;;;;;18.10;6.53;;;;;;;13.24;54.87;98883.00;2249466;79;21251;-78
2021/04/12 06:50:39;;;;;;;8.48;6.22;;;;;;;13.54;53.88;98876.91;2248984;78;21255;-79
2021/04/12 06:53:40;;;;;;;16.12;6.80;;;;;;;13.95;53.12;98878.24;2248914;79;21438;-79
2021/04/12 06:56:43;;;;;;;12.60;6.42;;;;;;;14.37;52.30;98871.16;2249095;78;21132;-81
2021/04/12 06:59:44;;;;;;;9.60;6.60;;;;;;;14.61;51.69;98874.61;2248960;79;21170;-80
2021/04/12 07:02:45;;;;;;;9.55;6.30;;;;;;;15.02;50.10;98864.81;2249335;79;21120;-79
2021/04/12 07:05:48;;;;;;;10.63;6.47;;;;;;;15.26;49.94;98868.16;2248781;78;21152;-80
2021/04/12 07:08:50;;;;;;;17.17;7.42;;;;;;;15.78;49.73;98859.06;2248856;79;21128;-79
2021/04/12 07:11:51;;;;;;;10.40;6.67;;;;;;;16.14;48.65;98865.30;2249477;79;21133;-78
2021/04/12 07:14:52;;;;;;;10.80;6.87;;;;;;;16.28;47.65;98862.52;2248989;79;21518;-79
2021/04/12 07:17:53;;;;;;;15.72;7.37;;;;;;;16.33;46.61;98862.02;2248920;79;21418;-79
2021/04/12 07:20:55;;;;;;;10.28;6.97;;;;;;;16.28;46.90;98863.83;2249184;79;21161;-80
2021/04/12 07:23:56;;;;;;;17.17;8.00;;;;;;;16.26;47.04;98864.29;2267826;78;21285;-79
2021/04/12 07:26:57;;;;;;;15.23;7.90;;;;;;;16.24;46.88;98866.94;2278148;78;21127;-79
2021/04/12 07:29:58;;;;;;;21.52;8.68;;;;;;;16.19;46.85;98871.83;2278886;78;21238;-80
2021/04/12 07:33:00;;;;;;;13.53;7.95;;;;;;;16.17;46.69;98871.84;2278651;78;21124;-79
2021/04/12 07:36:01;;;;;;;13.70;8.25;;;;;;;16.14;46.82;98878.45;2278964;78;21130;-80
2021/04/12 07:39:02;;;;;;;11.38;8.10;;;;;;;16.14;46.95;98878.45;2278998;78;21608;-81
2021/04/12 07:42:07;;;;;;;20.17;8.97;;;;;;;16.21;47.14;98877.95;2278598;78;21290;-79
2021/04/12 07:45:09;;;;;;;99.85;14.03;;;;;;;16.36;47.08;98878.23;2278247;78;21127;-79
2021/04/12 07:48:10;;;;;;;12.13;7.62;;;;;;;16.50;46.59;98879.86;2278866;78;21504;-80
2021/04/12 07:51:11;;;;;;;13.53;7.75;;;;;;;16.63;46.36;98881.03;2278627;78;21111;-80
2021/04/12 07:54:12;;;;;;;18.92;9.43;;;;;;;16.81;45.73;98881.72;2277935;78;21142;-78
2021/04/12 07:57:13;;;;;;;7.87;6.95;;;;;;;16.96;45.32;98883.28;2278974;78;21140;-80
2021/04/12 08:00:14;;;;;;;7.72;6.25;;;;;;;17.03;44.90;98883.63;2278577;78;21143;-79
2021/04/12 08:03:15;;;;;;;10.38;6.42;;;;;;;17.09;43.93;98878.27;2278318;78;21404;-80
2021/04/12 08:06:16;;;;;;;8.58;5.90;;;;;;;17.15;44.43;98883.45;2278700;78;21111;-80
2021/04/12 08:09:17;;;;;;;10.45;7.05;;;;;;;17.30;43.65;98885.00;2278159;78;21254;-80
2021/04/12 08:12:18;;;;;;;14.10;7.03;;;;;;;17.30;43.68;98884.12;2278585;78;21238;-78
2021/04/12 08:15:21;;;;;;;11.43;6.92;;;;;;;17.35;43.45;98881.88;2278475;78;21115;-82
2021/04/12 08:18:22;;;;;;;35.95;9.70;;;;;;;17.50;43.27;98880.33;2278566;78;21413;-80
2021/04/12 08:21:25;;;;;;;16.10;7.90;;;;;;;17.61;43.37;98876.66;2279026;78;21131;-80
2021/04/12 08:24:26;;;;;;;33.55;9.03;;;;;;;17.70;43.30;98879.18;2278534;78;21258;-80
2021/04/12 08:27:27;;;;;;;13.43;6.42;;;;;;;17.79;42.93;98881.66;2278519;78;21131;-80
2021/04/12 08:30:28;;;;;;;12.70;6.25;;;;;;;17.79;41.94;98885.17;2278549;78;21255;-80
2021/04/12 08:33:29;;;;;;;11.22;7.03;;;;;;;17.79;42.42;98882.98;2278005;78;21155;-80
2021/04/12 08:36:30;;;;;;;12.70;7.20;;;;;;;17.74;42.00;98888.34;2278820;78;21132;-80
2021/04/12 08:39:31;;;;;;;25.90;7.15;;;;;;;17.71;41.73;98877.83;2278384;78;21136;-80
2021/04/12 08:42:32;;;;;;;9.73;5.83;;;;;;;17.73;42.24;98877.81;2278245;78;21124;-81
2021/04/12 08:45:34;;;;;;;7.12;5.37;;;;;;;17.85;41.83;98882.88;2278808;78;21134;-81
2021/04/12 08:48:35;;;;;;;18.45;7.33;;;;;;;18.00;41.61;98884.39;2278502;78;21092;-80
2021/04/12 08:51:36;;;;;;;12.25;4.97;;;;;;;18.25;41.45;98879.13;2278987;78;21128;-80
2021/04/12 08:54:37;;;;;;;8.20;6.45;;;;;;;18.58;40.58;98875.41;2278374;78;21162;-79
2021/04/12 08:57:38;;;;;;;8.38;5.05;;;;;;;19.03;40.26;98876.27;2278614;78;21124;-80
2021/04/12 09:00:39;;;;;;;9.93;5.67;;;;;;;19.61;39.10;98866.59;2277933;78;21149;-82
2021/04/12 09:03:41;;;;;;;23.45;5.67;;;;;;;20.00;38.67;98866.55;2278058;78;21139;-82
2021/04/12 09:06:42;;;;;;;16.00;6.60;;;;;;;20.15;38.13;98863.50;2278402;78;21532;-81
2021/04/12 09:09:43;;;;;;;11.22;5.40;;;;;;;20.31;38.01;98865.28;2277702;78;21143;-81
2021/04/12 09:12:44;;;;;;;9.90;5.47;;;;;;;20.17;36.92;98866.11;2278318;78;21409;-81
2021/04/12 09:15:45;;;;;;;8.33;4.95;;;;;;;20.06;37.61;98874.34;2278474;78;21115;-81
2021/04/12 09:18:46;;;;;;;11.10;4.45;;;;;;;20.18;37.35;98871.36;2278517;78;21124;-79
2021/04/12 09:21:47;;;;;;;5.80;3.67;;;;;;;20.24;36.53;98867.22;2278200;78;21200;-81
2021/04/12 09:24:48;;;;;;;4.62;3.65;;;;;;;20.16;36.58;98871.86;2255787;78;21508;-81
2021/04/12 09:27:49;;;;;;;4.67;3.80;;;;;;;19.93;36.33;98873.75;2249257;78;21120;-82
2021/04/12 09:30:50;;;;;;;14.60;3.33;;;;;;;19.74;34.97;98877.77;2249746;79;21399;-82
2021/04/12 09:33:52;;;;;;;4.80;3.17;;;;;;;19.46;36.77;98880.17;2250075;79;21510;-80
2021/04/12 09:36:54;;;;;;;5.80;3.05;;;;;;;19.37;36.21;98881.70;2250365;78;21247;-82
2021/04/12 09:39:55;;;;;;;35.70;4.65;;;;;;;19.26;36.31;98880.63;2249906;79;21117;-81
2021/04/12 09:42:56;;;;;;;5.33;3.35;;;;;;;19.35;36.15;98878.22;2249997;79;21133;-81
2021/04/12 09:45:57;;;;;;;6.92;2.92;;;;;;;19.41;35.36;98882.05;2249972;79;21115;-83
2021/04/12 09:48:58;;;;;;;32.78;6.08;;;;;;;19.48;35.80;98880.13;2249387;79;21112;-80
2021/04/12 09:51:59;;;;;;;7.95;3.30;;;;;;;19.66;35.75;98871.33;2249213;79;21090;-80
2021/04/12 09:55:00;;;;;;;7.42;3.00;;;;;;;19.90;35.41;98872.95;2249904;79;21157;-81
2021/04/12 09:58:01;;;;;;;5.03;3.40;;;;;;;20.17;34.97;98874.92;2249911;79;21240;-81
2021/04/12 10:01:02;;;;;;;15.65;4.53;;;;;;;20.19;35.14;98874.43;2249942;79;21446;-81
2021/04/12 10:04:04;;;;;;;6.53;3.55;;;;;;;20.01;34.92;98870.48;2249756;79;21541;-80
2021/04/12 10:07:05;;;;;;;13.75;4.10;;;;;;;19.97;35.38;98874.12;2249518;79;21120;-80
2021/04/12 10:10:06;;;;;;;8.18;3.52;;;;;;;20.00;34.32;98874.04;2249698;79;21089;-80
2021/04/12 10:13:07;;;;;;;5.97;3.65;;;;;;;19.90;34.54;98875.60;2248876;78;21239;-80
2021/04/12 10:16:08;;;;;;;12.73;4.35;;;;;;;19.92;34.84;98875.11;2249207;79;21117;-82
2021/04/12 10:19:09;;;;;;;6.15;4.47;;;;;;;19.80;34.82;98868.80;2249383;79;21426;-81
2021/04/12 10:22:10;;;;;;;7.25;3.35;;;;;;;19.54;35.48;98872.95;2249481;78;21569;-77
2021/04/12 10:25:11;;;;;;;9.83;4.15;;;;;;;19.47;35.24;98878.39;2249103;78;21157;-78
2021/04/12 10:28:12;;;;;;;13.85;4.87;;;;;;;19.40;35.54;98885.61;2248134;79;21144;-80
2021/04/12 10:31:14;;;;;;;5.53;3.90;;;;;;;19.54;35.57;98886.19;2249295;79;21085;-80
2021/04/12 10:34:15;;;;;;;11.48;6.62;;;;;;;19.51;35.10;98884.91;2249651;79;21117;-81
2021/04/12 10:37:16;;;;;;;13.43;5.25;;;;;;;19.44;35.47;98888.60;2249747;79;21129;-79
2021/04/12 10:40:17;;;;;;;5.40;3.77;;;;;;;19.54;35.89;98888.83;2249398;79;21427;-83
2021/04/12 10:43:18;;;;;;;5.35;3.87;;;;;;;19.59;35.34;98892.25;2249372;79;21120;-80
2021/04/12 10:46:19;;;;;;;6.40;3.90;;;;;;;19.49;35.65;98891.14;2249388;79;21112;-81
2021/04/12 10:49:20;;;;;;;6.47;4.78;;;;;;;19.61;35.52;98885.59;2249121;79;21132;-80
2021/04/12 10:52:21;;;;;;;7.50;4.05;;;;;;;19.68;35.56;98881.89;2248658;79;21078;-80
2021/04/12 10:55:23;;;;;;;14.30;5.10;;;;;;;19.59;35.33;98882.11;2249142;79;21113;-79
2021/04/12 10:58:24;;;;;;;16.85;5.67;;;;;;;19.61;35.76;98869.70;2249082;79;21125;-80
2021/04/12 11:01:25;;;;;;;13.35;5.65;;;;;;;19.72;35.36;98874.28;2249390;79;21153;-81
2021/04/12 11:04:26;;;;;;;16.15;6.30;;;;;;;19.77;35.34;98872.84;2249085;79;21398;-81
2021/04/12 11:07:27;;;;;;;10.23;5.97;;;;;;;19.81;35.43;98875.83;2248478;79;21105;-79
2021/04/12 11:10:28;;;;;;;12.98;5.33;;;;;;;19.68;35.46;98872.62;2248935;79;21148;-81
2021/04/12 11:13:29;;;;;;;11.20;5.35;;;;;;;19.87;35.78;98874.36;2248749;79;21116;-80
2021/04/12 11:16:30;;;;;;;7.78;5.30;;;;;;;20.06;35.23;98874.34;2249647;79;21125;-80
2021/04/12 11:57:28;;;;;;;5.15;3.77;;;;;;;20.38;33.42;98864.66;2296109;77;22863;-81
2021/04/12 12:00:29;;;;;;;10.70;4.05;;;;;;;20.67;32.73;98867.40;2258915;78;21133;-82
2021/04/12 12:03:31;;;;;;;6.37;4.40;;;;;;;20.62;32.60;98877.27;2258976;78;21145;-80
2021/04/12 12:06:32;;;;;;;5.87;4.03;;;;;;;20.47;32.40;98871.94;2258984;79;21128;-80
2021/04/12 12:09:33;;;;;;;6.42;3.35;;;;;;;20.40;33.39;98860.22;2259279;79;21093;-79
2021/04/12 12:12:34;;;;;;;4.40;3.15;;;;;;;20.40;33.16;98865.52;2259573;79;21108;-79
2021/04/12 12:15:35;;;;;;;5.15;3.80;;;;;;;20.51;33.23;98868.74;2258131;79;21164;-80
2021/04/12 12:18:36;;;;;;;6.58;3.92;;;;;;;20.64;32.99;98867.48;2259288;79;21136;-79
2021/04/12 12:21:37;;;;;;;11.38;3.77;;;;;;;20.68;32.96;98862.50;2259548;79;21117;-79
2021/04/12 12:24:38;;;;;;;4.72;3.30;;;;;;;20.67;32.75;98863.42;2259179;78;21132;-79
2021/04/12 12:27:39;;;;;;;7.85;4.25;;;;;;;20.82;32.50;98860.81;2259057;79;21098;-79
2021/04/12 12:30:40;;;;;;;8.38;4.37;;;;;;;20.63;32.47;98863.09;2258884;79;21141;-78
2021/04/12 12:33:42;;;;;;;5.12;3.75;;;;;;;20.40;33.29;98862.87;2258629;79;21124;-78
2021/04/12 12:36:43;;;;;;;7.70;4.72;;;;;;;20.30;33.51;98861.76;2258658;79;21137;-78
2021/04/12 12:39:44;;;;;;;10.15;5.33;;;;;;;20.29;33.58;98860.02;2258039;79;21140;-78
2021/04/12 12:42:46;;;;;;;10.38;5.47;;;;;;;20.13;33.78;98860.02;2258265;79;21128;-78
2021/04/12 12:45:47;;;;;;;6.15;4.80;;;;;;;19.86;33.83;98862.89;2258811;79;21147;-78
2021/04/12 12:48:48;;;;;;;8.78;5.12;;;;;;;19.36;34.48;98868.05;2258717;79;21092;-75
2021/04/12 12:51:49;;;;;;;16.45;6.58;;;;;;;18.83;35.02;98878.01;2258671;79;21133;-78
2021/04/12 12:54:50;;;;;;;12.63;6.95;;;;;;;18.25;37.15;98888.37;2259028;79;21168;-79
2021/04/12 12:57:52;;;;;;;12.68;6.85;;;;;;;17.74;38.52;98893.63;2262047;79;21128;-77
2021/04/12 13:00:53;;;;;;;14.18;6.70;;;;;;;17.20;39.78;98893.50;2262103;78;21132;-78
2021/04/12 13:03:54;;;;;;;14.15;7.58;;;;;;;16.82;40.38;98898.41;2262448;78;21128;-77
2021/04/12 13:06:56;;;;;;;13.90;6.95;;;;;;;16.58;41.20;98901.30;2262092;78;21135;-77
2021/04/12 13:09:57;;;;;;;14.05;6.33;;;;;;;16.41;41.65;98895.73;2261205;78;21113;-79
2021/04/12 13:12:58;;;;;;;13.13;7.22;;;;;;;16.21;42.21;98893.31;2262209;78;21121;-77
2021/04/12 13:16:00;;;;;;;19.65;9.45;;;;;;;16.04;43.40;98900.95;2261791;78;21156;-78
2021/04/12 13:19:02;;;;;;;16.15;8.38;;;;;;;15.99;43.79;98902.75;2261254;78;21144;-79
2021/04/12 13:22:03;;;;;;;18.42;8.55;;;;;;;15.91;44.46;98901.05;2261953;78;21093;-77
2021/04/12 13:25:04;;;;;;;20.82;11.55;;;;;;;15.78;45.62;98899.41;2262165;78;21641;-77
2021/04/12 13:28:05;;;;;;;24.90;15.23;;;;;;;15.66;46.32;98913.11;2262278;78;21133;-78
2021/04/12 13:31:06;;;;;;;24.05;18.10;;;;;;;15.52;47.96;98916.64;2261963;78;21127;-78
2021/04/12 13:34:07;;;;;;;26.55;18.60;;;;;;;15.42;48.45;98923.30;2261978;78;21116;-78
2021/04/12 13:37:08;;;;;;;31.57;19.37;;;;;;;15.48;48.80;98917.55;2262161;78;21164;-77
2021/04/12 13:40:09;;;;;;;34.18;22.87;;;;;;;15.63;48.33;98918.39;2262031;78;21089;-78
2021/04/12 13:43:10;;;;;;;33.35;25.65;;;;;;;15.73;49.13;98930.16;2261864;78;21123;-78
2021/04/12 13:46:12;;;;;;;37.73;27.48;;;;;;;15.84;49.31;98932.27;2262215;78;21120;-78
2021/04/12 13:49:14;;;;;;;34.27;26.07;;;;;;;15.83;49.22;98938.86;2262589;78;21549;-77
2021/04/12 13:52:15;;;;;;;35.90;27.75;;;;;;;15.76;49.79;98945.05;2262395;78;21120;-80
2021/04/12 13:55:16;;;;;;;41.08;29.87;;;;;;;15.68;50.67;98945.10;2259846;78;21235;-77
2021/04/12 13:58:17;;;;;;;41.53;30.57;;;;;;;15.66;50.54;98946.88;2244759;79;21137;-78
2021/04/12 14:01:18;;;;;;;42.48;31.20;;;;;;;15.49;51.08;98950.86;2244543;79;21356;-79
2021/04/12 14:04:20;;;;;;;52.78;33.63;;;;;;;15.35;51.95;98950.08;2244796;79;21156;-77
2021/04/12 14:07:21;;;;;;;38.08;26.55;;;;;;;15.26;51.82;98956.25;2244703;79;21431;-77
2021/04/12 14:10:23;;;;;;;59.83;37.25;;;;;;;15.27;51.83;98958.00;2244586;79;21368;-77
2021/04/12 14:13:24;;;;;;;48.98;32.58;;;;;;;15.26;51.86;98958.89;2244365;79;21514;-76
2021/04/12 14:16:27;;;;;;;44.27;29.87;;;;;;;15.35;51.97;98963.22;2243147;79;21152;-78
2021/04/12 14:19:29;;;;;;;36.68;29.65;;;;;;;15.44;51.82;98978.08;2244445;79;21474;-77
2021/04/12 14:22:30;;;;;;;34.25;28.42;;;;;;;15.58;51.95;98967.94;2245179;79;21083;-80
2021/04/12 14:25:31;;;;;;;36.98;29.05;;;;;;;15.65;51.78;98967.49;2244849;79;21144;-80
2021/04/12 14:28:32;;;;;;;35.08;26.97;;;;;;;15.68;51.57;98967.47;2244741;79;21553;-78
2021/04/12 14:31:34;;;;;;;30.48;26.05;;;;;;;15.80;51.21;98969.14;2245058;79;21145;-78
2021/04/12 14:34:35;;;;;;;32.98;26.73;;;;;;;15.80;51.19;98972.66;2244395;79;21239;-78
2021/04/12 14:37:36;;;;;;;34.55;27.35;;;;;;;15.60;51.22;98985.94;2243881;79;21403;-78
2021/04/12 14:40:37;;;;;;;33.58;28.00;;;;;;;15.52;51.35;98984.17;2244455;79;21093;-78
2021/04/12 14:43:38;;;;;;;29.98;26.70;;;;;;;15.55;51.45;98992.05;2244821;79;21086;-79